sensor_id;sensor_type;location;lat;lon;timestamp;pressure;altitude;pressure_sealevel;temperature;humidity
16094;BME280;8151;47.824;12.092;2023-08-06T00:00:47;95625.19;;;16.86;92.55
16094;BME280;8151;47.824;12.092;2023-08-06T00:03:15;95614.97;;;16.83;92.47
16094;BME280;8151;47.824;12.092;2023-08-06T00:05:46;95610.03;;;16.80;92.38
16094;BME280;8151;47.824;12.092;2023-08-06T00:08:15;95617.47;;;16.78;92.22
16094;BME280;8151;47.824;12.092;2023-08-06T00:10:43;95612.56;;;16.74;92.24
16094;BME280;8151;47.824;12.092;2023-08-06T00:13:12;95613.84;;;16.72;91.91
16094;BME280;8151;47.824;12.092;2023-08-06T00:15:42;95615.25;;;16.74;91.92
16094;BME280;8151;47.824;12.092;2023-08-06T00:18:10;95613.41;;;16.75;91.71
16094;BME280;8151;47.824;12.092;2023-08-06T00:20:39;95611.53;;;16.76;91.63
16094;BME280;8151;47.824;12.092;2023-08-06T00:23:08;95613.63;;;16.73;91.51
16094;BME280;8151;47.824;12.092;2023-08-06T00:25:37;95610.38;;;16.71;91.62
16094;BME280;8151;47.824;12.092;2023-08-06T00:28:05;95614.06;;;16.70;91.67
16094;BME280;8151;47.824;12.092;2023-08-06T00:30:34;95615.34;;;16.68;91.56
16094;BME280;8151;47.824;12.092;2023-08-06T00:33:04;95601.97;;;16.68;91.72
16094;BME280;8151;47.824;12.092;2023-08-06T00:35:33;95600.72;;;16.70;91.46
16094;BME280;8151;47.824;12.092;2023-08-06T00:38:01;95599.91;;;16.70;91.64
16094;BME280;8151;47.824;12.092;2023-08-06T00:40:29;95601.75;;;16.69;91.75
16094;BME280;8151;47.824;12.092;2023-08-06T00:42:58;95601.50;;;16.71;91.53
16094;BME280;8151;47.824;12.092;2023-08-06T00:45:27;95597.00;;;16.71;91.61
16094;BME280;8151;47.824;12.092;2023-08-06T00:48:08;95603.25;;;16.65;91.84
16094;BME280;8151;47.824;12.092;2023-08-06T00:50:36;95612.28;;;16.64;92.12
16094;BME280;8151;47.824;12.092;2023-08-06T00:53:05;95612.97;;;16.60;92.13
16094;BME280;8151;47.824;12.092;2023-08-06T00:55:34;95617.16;;;16.56;92.59
16094;BME280;8151;47.824;12.092;2023-08-06T00:58:02;95621.94;;;16.47;92.78
16094;BME280;8151;47.824;12.092;2023-08-06T01:00:31;95643.25;;;16.35;93.18
16094;BME280;8151;47.824;12.092;2023-08-06T01:03:00;95637.66;;;16.18;93.51
16094;BME280;8151;47.824;12.092;2023-08-06T01:05:30;95624.19;;;16.13;93.90
16094;BME280;8151;47.824;12.092;2023-08-06T01:08:15;95639.31;;;16.19;93.40
16094;BME280;8151;47.824;12.092;2023-08-06T01:10:59;95638.13;;;16.15;93.10
16094;BME280;8151;47.824;12.092;2023-08-06T01:13:38;95635.06;;;16.11;93.23
16094;BME280;8151;47.824;12.092;2023-08-06T01:16:11;95638.56;;;16.12;93.09
16094;BME280;8151;47.824;12.092;2023-08-06T01:18:39;95630.75;;;16.10;93.07
16094;BME280;8151;47.824;12.092;2023-08-06T01:21:10;95631.56;;;16.11;93.26
16094;BME280;8151;47.824;12.092;2023-08-06T01:23:39;95633.00;;;16.13;93.27
16094;BME280;8151;47.824;12.092;2023-08-06T01:26:13;95630.34;;;16.13;93.12
16094;BME280;8151;47.824;12.092;2023-08-06T01:28:48;95634.25;;;16.11;93.51
16094;BME280;8151;47.824;12.092;2023-08-06T01:31:22;95640.03;;;16.08;93.61
16094;BME280;8151;47.824;12.092;2023-08-06T01:33:53;95638.03;;;16.03;93.72
16094;BME280;8151;47.824;12.092;2023-08-06T01:36:26;95633.72;;;16.02;93.74
16094;BME280;8151;47.824;12.092;2023-08-06T01:38:55;95631.28;;;16.01;93.66
16094;BME280;8151;47.824;12.092;2023-08-06T01:41:24;95626.97;;;16.00;93.59
16094;BME280;8151;47.824;12.092;2023-08-06T01:43:58;95622.25;;;16.02;93.25
16094;BME280;8151;47.824;12.092;2023-08-06T01:46:26;95624.91;;;16.02;93.30
16094;BME280;8151;47.824;12.092;2023-08-06T01:48:55;95618.75;;;16.01;93.39
16094;BME280;8151;47.824;12.092;2023-08-06T01:51:23;95614.25;;;16.02;93.19
16094;BME280;8151;47.824;12.092;2023-08-06T01:53:53;95611.28;;;16.10;92.94
16094;BME280;8151;47.824;12.092;2023-08-06T01:56:21;95599.34;;;16.12;92.79
16094;BME280;8151;47.824;12.092;2023-08-06T01:58:50;95603.44;;;16.15;92.50
16094;BME280;8151;47.824;12.092;2023-08-06T02:01:18;95600.31;;;16.18;92.34
16094;BME280;8151;47.824;12.092;2023-08-06T02:03:46;95600.47;;;16.23;92.06
16094;BME280;8151;47.824;12.092;2023-08-06T02:06:15;95601.06;;;16.25;92.24
16094;BME280;8151;47.824;12.092;2023-08-06T02:08:43;95606.38;;;16.25;92.04
16094;BME280;8151;47.824;12.092;2023-08-06T02:11:13;95610.75;;;16.20;92.04
16094;BME280;8151;47.824;12.092;2023-08-06T02:13:41;95609.56;;;16.16;92.31
16094;BME280;8151;47.824;12.092;2023-08-06T02:16:20;95598.09;;;16.15;92.33
16094;BME280;8151;47.824;12.092;2023-08-06T02:18:50;95597.25;;;16.14;92.05
16094;BME280;8151;47.824;12.092;2023-08-06T02:21:18;95592.75;;;16.15;92.12
16094;BME280;8151;47.824;12.092;2023-08-06T02:23:47;95600.75;;;16.15;91.78
16094;BME280;8151;47.824;12.092;2023-08-06T02:26:16;95592.28;;;16.18;91.76
16094;BME280;8151;47.824;12.092;2023-08-06T02:28:45;95588.38;;;16.21;91.61
16094;BME280;8151;47.824;12.092;2023-08-06T02:31:13;95586.06;;;16.24;91.66
16094;BME280;8151;47.824;12.092;2023-08-06T02:33:42;95579.84;;;16.30;91.59
16094;BME280;8151;47.824;12.092;2023-08-06T02:36:10;95577.19;;;16.30;91.26
16094;BME280;8151;47.824;12.092;2023-08-06T02:38:39;95574.53;;;16.30;91.23
16094;BME280;8151;47.824;12.092;2023-08-06T02:41:07;95585.84;;;16.26;91.11
16094;BME280;8151;47.824;12.092;2023-08-06T02:43:37;95584.44;;;16.23;91.23
16094;BME280;8151;47.824;12.092;2023-08-06T02:46:05;95587.72;;;16.25;91.19
16094;BME280;8151;47.824;12.092;2023-08-06T02:48:34;95578.81;;;16.13;91.04
16094;BME280;8151;47.824;12.092;2023-08-06T02:51:02;95575.19;;;16.07;90.95
16094;BME280;8151;47.824;12.092;2023-08-06T02:53:31;95578.72;;;16.01;90.71
16094;BME280;8151;47.824;12.092;2023-08-06T02:55:58;95570.78;;;15.94;90.37
16094;BME280;8151;47.824;12.092;2023-08-06T02:58:27;95569.16;;;15.93;90.03
16094;BME280;8151;47.824;12.092;2023-08-06T03:01:04;95567.97;;;15.89;89.90
16094;BME280;8151;47.824;12.092;2023-08-06T03:03:33;95558.19;;;15.83;89.92
16094;BME280;8151;47.824;12.092;2023-08-06T03:06:01;95562.34;;;15.79;89.53
16094;BME280;8151;47.824;12.092;2023-08-06T03:08:30;95557.59;;;15.81;89.48
16094;BME280;8151;47.824;12.092;2023-08-06T03:10:58;95558.19;;;15.83;89.30
16094;BME280;8151;47.824;12.092;2023-08-06T03:13:27;95545.91;;;15.82;89.15
16094;BME280;8151;47.824;12.092;2023-08-06T03:15:57;95539.50;;;15.83;89.27
16094;BME280;8151;47.824;12.092;2023-08-06T03:18:27;95535.22;;;15.82;89.19
16094;BME280;8151;47.824;12.092;2023-08-06T03:20:56;95536.47;;;15.80;88.97
16094;BME280;8151;47.824;12.092;2023-08-06T03:23:25;95527.22;;;15.82;88.98
16094;BME280;8151;47.824;12.092;2023-08-06T03:26:01;95513.06;;;15.82;88.86
16094;BME280;8151;47.824;12.092;2023-08-06T03:28:29;95527.22;;;15.82;88.95
16094;BME280;8151;47.824;12.092;2023-08-06T03:31:01;95514.31;;;15.79;88.68
16094;BME280;8151;47.824;12.092;2023-08-06T03:33:31;95515.81;;;15.75;88.46
16094;BME280;8151;47.824;12.092;2023-08-06T03:35:59;95521.78;;;15.70;88.57
16094;BME280;8151;47.824;12.092;2023-08-06T03:38:28;95528.34;;;15.68;88.79
16094;BME280;8151;47.824;12.092;2023-08-06T03:40:56;95522.63;;;15.64;88.82
16094;BME280;8151;47.824;12.092;2023-08-06T03:43:24;95519.84;;;15.59;88.62
16094;BME280;8151;47.824;12.092;2023-08-06T03:45:52;95518.66;;;15.55;88.71
16094;BME280;8151;47.824;12.092;2023-08-06T03:48:21;95516.00;;;15.55;88.67
16094;BME280;8151;47.824;12.092;2023-08-06T03:50:50;95520.66;;;15.60;88.45
16094;BME280;8151;47.824;12.092;2023-08-06T03:53:19;95519.84;;;15.59;88.55
16094;BME280;8151;47.824;12.092;2023-08-06T03:55:47;95509.97;;;15.60;88.24
16094;BME280;8151;47.824;12.092;2023-08-06T03:58:16;95518.16;;;15.65;88.50
16094;BME280;8151;47.824;12.092;2023-08-06T04:00:44;95514.63;;;15.64;88.43
16094;BME280;8151;47.824;12.092;2023-08-06T04:03:13;95517.31;;;15.64;88.08
16094;BME280;8151;47.824;12.092;2023-08-06T04:05:41;95519.16;;;15.64;88.52
16094;BME280;8151;47.824;12.092;2023-08-06T04:08:11;95517.56;;;15.63;88.80
16094;BME280;8151;47.824;12.092;2023-08-06T04:10:39;95518.19;;;15.58;89.13
16094;BME280;8151;47.824;12.092;2023-08-06T04:13:08;95517.00;;;15.54;89.17
16094;BME280;8151;47.824;12.092;2023-08-06T04:15:36;95518.28;;;15.51;89.34
16094;BME280;8151;47.824;12.092;2023-08-06T04:18:05;95516.50;;;15.45;89.21
16094;BME280;8151;47.824;12.092;2023-08-06T04:20:33;95519.00;;;15.40;89.13
16094;BME280;8151;47.824;12.092;2023-08-06T04:23:05;95518.59;;;15.36;88.73
16094;BME280;8151;47.824;12.092;2023-08-06T04:25:35;95515.34;;;15.34;88.25
16094;BME280;8151;47.824;12.092;2023-08-06T04:28:04;95526.44;;;15.31;88.17
16094;BME280;8151;47.824;12.092;2023-08-06T04:30:32;95518.69;;;15.30;87.75
16094;BME280;8151;47.824;12.092;2023-08-06T04:33:01;95512.28;;;15.31;87.30
16094;BME280;8151;47.824;12.092;2023-08-06T04:35:29;95513.34;;;15.30;87.05
16094;BME280;8151;47.824;12.092;2023-08-06T04:37:58;95503.50;;;15.30;86.92
16094;BME280;8151;47.824;12.092;2023-08-06T04:40:26;95503.28;;;15.32;86.76
16094;BME280;8151;47.824;12.092;2023-08-06T04:42:56;95508.16;;;15.35;86.50
16094;BME280;8151;47.824;12.092;2023-08-06T04:45:24;95506.34;;;15.35;86.16
16094;BME280;8151;47.824;12.092;2023-08-06T04:47:53;95508.16;;;15.35;85.98
16094;BME280;8151;47.824;12.092;2023-08-06T04:50:21;95510.81;;;15.35;85.99
16094;BME280;8151;47.824;12.092;2023-08-06T04:52:50;95516.41;;;15.33;85.79
16094;BME280;8151;47.824;12.092;2023-08-06T04:55:18;95520.47;;;15.36;85.40
16094;BME280;8151;47.824;12.092;2023-08-06T04:57:46;95520.00;;;15.39;85.24
16094;BME280;8151;47.824;12.092;2023-08-06T05:00:16;95519.78;;;15.41;85.07
16094;BME280;8151;47.824;12.092;2023-08-06T05:02:45;95519.16;;;15.45;84.72
16094;BME280;8151;47.824;12.092;2023-08-06T05:05:13;95512.56;;;15.48;84.26
16094;BME280;8151;47.824;12.092;2023-08-06T05:07:41;95521.97;;;15.50;83.99
16094;BME280;8151;47.824;12.092;2023-08-06T05:10:10;95521.53;;;15.53;84.04
16094;BME280;8151;47.824;12.092;2023-08-06T05:12:39;95526.41;;;15.56;83.71
16094;BME280;8151;47.824;12.092;2023-08-06T05:15:09;95522.28;;;15.61;83.72
16094;BME280;8151;47.824;12.092;2023-08-06T05:17:39;95525.91;;;15.66;83.21
16094;BME280;8151;47.824;12.092;2023-08-06T05:20:08;95525.88;;;15.73;83.22
16094;BME280;8151;47.824;12.092;2023-08-06T05:22:37;95524.78;;;15.81;83.02
16094;BME280;8151;47.824;12.092;2023-08-06T05:25:15;95527.59;;;15.86;82.97
16094;BME280;8151;47.824;12.092;2023-08-06T05:27:44;95523.44;;;15.90;83.01
16094;BME280;8151;47.824;12.092;2023-08-06T05:30:12;95522.78;;;15.94;82.67
16094;BME280;8151;47.824;12.092;2023-08-06T05:32:42;95521.06;;;16.00;82.38
16094;BME280;8151;47.824;12.092;2023-08-06T05:35:10;95511.78;;;16.03;82.21
16094;BME280;8151;47.824;12.092;2023-08-06T05:37:39;95511.94;;;16.08;81.85
16094;BME280;8151;47.824;12.092;2023-08-06T05:40:08;95509.66;;;16.11;82.02
16094;BME280;8151;47.824;12.092;2023-08-06T05:42:37;95519.28;;;16.12;81.74
16094;BME280;8151;47.824;12.092;2023-08-06T05:45:06;95523.81;;;16.12;82.00
16094;BME280;8151;47.824;12.092;2023-08-06T05:47:34;95521.34;;;16.10;82.05
16094;BME280;8151;47.824;12.092;2023-08-06T05:50:06;95517.88;;;16.10;81.94
16094;BME280;8151;47.824;12.092;2023-08-06T05:52:34;95520.53;;;16.10;81.88
16094;BME280;8151;47.824;12.092;2023-08-06T05:55:03;95523.66;;;16.07;81.93
16094;BME280;8151;47.824;12.092;2023-08-06T05:57:32;95525.06;;;16.09;81.73
16094;BME280;8151;47.824;12.092;2023-08-06T06:00:01;95532.03;;;16.10;81.93
16094;BME280;8151;47.824;12.092;2023-08-06T06:02:29;95532.41;;;16.14;81.74
16094;BME280;8151;47.824;12.092;2023-08-06T06:04:58;95528.25;;;16.18;81.37
16094;BME280;8151;47.824;12.092;2023-08-06T06:07:28;95521.19;;;16.24;81.30
16094;BME280;8151;47.824;12.092;2023-08-06T06:09:56;95524.59;;;16.31;81.20
16094;BME280;8151;47.824;12.092;2023-08-06T06:12:24;95525.94;;;16.40;81.19
16094;BME280;8151;47.824;12.092;2023-08-06T06:14:53;95528.94;;;16.44;81.15
16094;BME280;8151;47.824;12.092;2023-08-06T06:17:22;95529.91;;;16.49;80.81
16094;BME280;8151;47.824;12.092;2023-08-06T06:19:50;95537.25;;;16.54;80.72
16094;BME280;8151;47.824;12.092;2023-08-06T06:22:19;95524.47;;;16.56;80.72
16094;BME280;8151;47.824;12.092;2023-08-06T06:24:48;95524.00;;;16.59;80.81
16094;BME280;8151;47.824;12.092;2023-08-06T06:27:17;95527.28;;;16.61;80.61
16094;BME280;8151;47.824;12.092;2023-08-06T06:29:45;95522.78;;;16.62;80.49
16094;BME280;8151;47.824;12.092;2023-08-06T06:32:14;95530.31;;;16.65;80.29
16094;BME280;8151;47.824;12.092;2023-08-06T06:34:42;95525.81;;;16.65;80.38
16094;BME280;8151;47.824;12.092;2023-08-06T06:37:11;95532.31;;;16.69;80.02
16094;BME280;8151;47.824;12.092;2023-08-06T06:39:39;95536.16;;;16.73;80.06
16094;BME280;8151;47.824;12.092;2023-08-06T06:42:09;95534.06;;;16.76;79.88
16094;BME280;8151;47.824;12.092;2023-08-06T06:44:37;95541.88;;;16.77;79.64
16094;BME280;8151;47.824;12.092;2023-08-06T06:47:06;95546.38;;;16.77;79.40
16094;BME280;8151;47.824;12.092;2023-08-06T06:49:34;95544.53;;;16.77;79.20
16094;BME280;8151;47.824;12.092;2023-08-06T06:52:04;95551.72;;;16.77;78.91
16094;BME280;8151;47.824;12.092;2023-08-06T06:54:42;95549.50;;;16.73;78.86
16094;BME280;8151;47.824;12.092;2023-08-06T06:57:12;95551.97;;;16.75;78.70
16094;BME280;8151;47.824;12.092;2023-08-06T06:59:40;95550.69;;;16.78;78.49
16094;BME280;8151;47.824;12.092;2023-08-06T07:02:13;95556.22;;;16.83;78.28
16094;BME280;8151;47.824;12.092;2023-08-06T07:04:41;95547.94;;;16.84;78.30
16094;BME280;8151;47.824;12.092;2023-08-06T07:07:10;95553.44;;;16.89;78.02
16094;BME280;8151;47.824;12.092;2023-08-06T07:09:38;95552.97;;;16.92;77.72
16094;BME280;8151;47.824;12.092;2023-08-06T07:12:07;95550.63;;;16.96;77.24
16094;BME280;8151;47.824;12.092;2023-08-06T07:14:37;95548.91;;;17.02;77.16
16094;BME280;8151;47.824;12.092;2023-08-06T07:17:06;95551.94;;;17.05;77.20
16094;BME280;8151;47.824;12.092;2023-08-06T07:19:39;95551.03;;;17.11;77.00
16094;BME280;8151;47.824;12.092;2023-08-06T07:22:07;95551.63;;;17.13;76.95
16094;BME280;8151;47.824;12.092;2023-08-06T07:24:36;95545.81;;;17.17;76.85
16094;BME280;8151;47.824;12.092;2023-08-06T07:27:05;95540.63;;;17.22;76.67
16094;BME280;8151;47.824;12.092;2023-08-06T07:29:34;95543.38;;;17.27;76.55
16094;BME280;8151;47.824;12.092;2023-08-06T07:32:07;95534.22;;;17.35;76.50
16094;BME280;8151;47.824;12.092;2023-08-06T07:34:36;95534.72;;;17.43;76.19
16094;BME280;8151;47.824;12.092;2023-08-06T07:37:05;95530.88;;;17.51;75.80
16094;BME280;8151;47.824;12.092;2023-08-06T07:39:33;95532.16;;;17.60;75.68
16094;BME280;8151;47.824;12.092;2023-08-06T07:42:12;95530.66;;;17.64;75.51
16094;BME280;8151;47.824;12.092;2023-08-06T07:44:40;95520.41;;;17.61;75.20
16094;BME280;8151;47.824;12.092;2023-08-06T07:47:10;95520.03;;;17.58;75.04
16094;BME280;8151;47.824;12.092;2023-08-06T07:49:38;95525.41;;;17.58;75.07
16094;BME280;8151;47.824;12.092;2023-08-06T07:52:10;95520.84;;;17.46;75.13
16094;BME280;8151;47.824;12.092;2023-08-06T07:54:38;95517.50;;;17.39;75.19
16094;BME280;8151;47.824;12.092;2023-08-06T07:57:07;95526.41;;;17.33;75.18
16094;BME280;8151;47.824;12.092;2023-08-06T07:59:35;95544.22;;;17.27;75.47
16094;BME280;8151;47.824;12.092;2023-08-06T08:02:04;95546.31;;;17.25;75.49
16094;BME280;8151;47.824;12.092;2023-08-06T08:04:34;95538.38;;;17.19;75.55
16094;BME280;8151;47.824;12.092;2023-08-06T08:07:04;95540.00;;;17.08;75.85
16094;BME280;8151;47.824;12.092;2023-08-06T08:09:34;95543.50;;;17.08;75.88
16094;BME280;8151;47.824;12.092;2023-08-06T08:12:03;95544.28;;;17.09;75.80
16094;BME280;8151;47.824;12.092;2023-08-06T08:14:32;95538.50;;;17.12;75.96
16094;BME280;8151;47.824;12.092;2023-08-06T08:17:03;95540.47;;;17.17;76.14
16094;BME280;8151;47.824;12.092;2023-08-06T08:19:32;95538.63;;;17.17;76.59
16094;BME280;8151;47.824;12.092;2023-08-06T08:22:02;95539.31;;;17.12;77.14
16094;BME280;8151;47.824;12.092;2023-08-06T08:24:30;95537.09;;;17.09;77.45
16094;BME280;8151;47.824;12.092;2023-08-06T08:26:59;95536.63;;;17.12;77.74
16094;BME280;8151;47.824;12.092;2023-08-06T08:29:27;95540.25;;;17.18;77.77
16094;BME280;8151;47.824;12.092;2023-08-06T08:31:56;95532.81;;;17.20;77.97
16094;BME280;8151;47.824;12.092;2023-08-06T08:34:24;95523.41;;;17.18;77.63
16094;BME280;8151;47.824;12.092;2023-08-06T08:36:53;95536.06;;;17.10;78.19
16094;BME280;8151;47.824;12.092;2023-08-06T08:39:23;95513.28;;;17.08;78.42
16094;BME280;8151;47.824;12.092;2023-08-06T08:41:52;95519.09;;;17.17;78.54
16094;BME280;8151;47.824;12.092;2023-08-06T08:44:21;95509.34;;;17.22;78.08
16094;BME280;8151;47.824;12.092;2023-08-06T08:46:50;95507.94;;;17.20;78.03
16094;BME280;8151;47.824;12.092;2023-08-06T08:49:21;95490.84;;;17.21;77.76
16094;BME280;8151;47.824;12.092;2023-08-06T08:51:53;95501.78;;;17.19;77.69
16094;BME280;8151;47.824;12.092;2023-08-06T08:54:24;95496.19;;;17.21;77.32
16094;BME280;8151;47.824;12.092;2023-08-06T08:56:53;95509.13;;;17.24;77.07
16094;BME280;8151;47.824;12.092;2023-08-06T08:59:23;95509.13;;;17.24;76.53
16094;BME280;8151;47.824;12.092;2023-08-06T09:01:53;95520.63;;;17.24;75.94
16094;BME280;8151;47.824;12.092;2023-08-06T09:04:24;95504.13;;;17.27;75.40
16094;BME280;8151;47.824;12.092;2023-08-06T09:06:56;95528.28;;;17.32;74.84
16094;BME280;8151;47.824;12.092;2023-08-06T09:09:29;95507.25;;;17.36;74.28
16094;BME280;8151;47.824;12.092;2023-08-06T09:12:00;95502.72;;;17.37;73.89
16094;BME280;8151;47.824;12.092;2023-08-06T09:14:29;95517.59;;;17.32;73.58
16094;BME280;8151;47.824;12.092;2023-08-06T09:16:58;95514.81;;;17.27;72.94
16094;BME280;8151;47.824;12.092;2023-08-06T09:19:26;95517.50;;;17.27;72.69
16094;BME280;8151;47.824;12.092;2023-08-06T09:21:55;95524.09;;;17.37;72.51
16094;BME280;8151;47.824;12.092;2023-08-06T09:24:24;95526.19;;;17.46;72.07
16094;BME280;8151;47.824;12.092;2023-08-06T09:26:54;95536.66;;;17.60;71.63
16094;BME280;8151;47.824;12.092;2023-08-06T09:29:23;95516.94;;;17.84;70.83
16094;BME280;8151;47.824;12.092;2023-08-06T09:31:51;95528.19;;;17.98;70.37
16094;BME280;8151;47.824;12.092;2023-08-06T09:34:21;95516.19;;;18.01;69.93
16094;BME280;8151;47.824;12.092;2023-08-06T09:36:51;95521.81;;;17.99;69.89
16094;BME280;8151;47.824;12.092;2023-08-06T09:39:24;95515.16;;;18.02;69.62
16094;BME280;8151;47.824;12.092;2023-08-06T09:41:56;95532.50;;;17.99;69.52
16094;BME280;8151;47.824;12.092;2023-08-06T09:44:26;95527.25;;;17.93;69.39
16094;BME280;8151;47.824;12.092;2023-08-06T09:46:56;95520.75;;;17.88;69.54
16094;BME280;8151;47.824;12.092;2023-08-06T09:49:26;95533.91;;;17.90;69.41
16094;BME280;8151;47.824;12.092;2023-08-06T09:51:55;95525.53;;;17.86;69.14
16094;BME280;8151;47.824;12.092;2023-08-06T09:54:27;95528.44;;;17.85;68.72
16094;BME280;8151;47.824;12.092;2023-08-06T09:56:59;95530.88;;;17.86;68.58
16094;BME280;8151;47.824;12.092;2023-08-06T09:59:28;95526.47;;;17.92;68.33
16094;BME280;8151;47.824;12.092;2023-08-06T10:01:58;95532.16;;;17.96;67.96
16094;BME280;8151;47.824;12.092;2023-08-06T10:04:26;95525.72;;;18.08;67.52
16094;BME280;8151;47.824;12.092;2023-08-06T10:07:07;95528.72;;;18.24;66.98
16094;BME280;8151;47.824;12.092;2023-08-06T10:09:36;95530.31;;;18.37;66.63
16094;BME280;8151;47.824;12.092;2023-08-06T10:12:06;95517.59;;;18.44;66.26
16094;BME280;8151;47.824;12.092;2023-08-06T10:14:37;95538.53;;;18.47;65.94
16094;BME280;8151;47.824;12.092;2023-08-06T10:17:07;95529.94;;;18.45;65.75
16094;BME280;8151;47.824;12.092;2023-08-06T10:19:36;95528.31;;;18.44;65.64
16094;BME280;8151;47.824;12.092;2023-08-06T10:22:08;95520.00;;;18.57;65.26
16094;BME280;8151;47.824;12.092;2023-08-06T10:24:46;95525.16;;;18.76;65.01
16094;BME280;8151;47.824;12.092;2023-08-06T10:27:19;95515.00;;;18.78;64.56
16094;BME280;8151;47.824;12.092;2023-08-06T10:29:48;95527.72;;;18.70;64.55
16094;BME280;8151;47.824;12.092;2023-08-06T10:32:17;95543.50;;;18.67;64.47
16094;BME280;8151;47.824;12.092;2023-08-06T10:34:56;95532.16;;;18.65;64.55
16094;BME280;8151;47.824;12.092;2023-08-06T10:37:34;95525.31;;;18.69;64.67
16094;BME280;8151;47.824;12.092;2023-08-06T10:40:06;95524.47;;;18.68;64.93
16094;BME280;8151;47.824;12.092;2023-08-06T10:42:40;95546.59;;;18.76;64.72
16094;BME280;8151;47.824;12.092;2023-08-06T10:45:12;95531.81;;;18.73;64.27
16094;BME280;8151;47.824;12.092;2023-08-06T10:47:41;95546.59;;;18.76;63.96
16094;BME280;8151;47.824;12.092;2023-08-06T10:50:12;95550.56;;;18.73;63.75
16094;BME280;8151;47.824;12.092;2023-08-06T10:52:43;95533.47;;;18.62;63.72
16094;BME280;8151;47.824;12.092;2023-08-06T10:55:12;95542.47;;;18.56;63.77
16094;BME280;8151;47.824;12.092;2023-08-06T10:57:42;95545.88;;;18.52;63.83
16094;BME280;8151;47.824;12.092;2023-08-06T11:00:11;95545.78;;;18.46;63.65
16094;BME280;8151;47.824;12.092;2023-08-06T11:02:43;95563.03;;;18.39;63.71
16094;BME280;8151;47.824;12.092;2023-08-06T11:05:12;95556.63;;;18.28;63.06
16094;BME280;8151;47.824;12.092;2023-08-06T11:07:41;95583.56;;;18.21;63.29
16094;BME280;8151;47.824;12.092;2023-08-06T11:10:11;95564.59;;;18.11;63.19
16094;BME280;8151;47.824;12.092;2023-08-06T11:12:41;95576.25;;;18.05;63.13
16094;BME280;8151;47.824;12.092;2023-08-06T11:15:10;95562.88;;;18.05;63.00
16094;BME280;8151;47.824;12.092;2023-08-06T11:17:40;95580.75;;;18.16;62.81
16094;BME280;8151;47.824;12.092;2023-08-06T11:20:10;95578.66;;;18.30;62.43
16094;BME280;8151;47.824;12.092;2023-08-06T11:22:40;95567.00;;;18.36;62.29
16094;BME280;8151;47.824;12.092;2023-08-06T11:25:09;95573.34;;;18.47;62.47
16094;BME280;8151;47.824;12.092;2023-08-06T11:27:38;95577.41;;;18.61;62.31
16094;BME280;8151;47.824;12.092;2023-08-06T11:30:10;95581.56;;;18.69;62.25
16094;BME280;8151;47.824;12.092;2023-08-06T11:32:45;95588.16;;;18.78;61.89
16094;BME280;8151;47.824;12.092;2023-08-06T11:35:15;95576.69;;;18.66;61.85
16094;BME280;8151;47.824;12.092;2023-08-06T11:37:49;95582.88;;;18.55;61.80
16094;BME280;8151;47.824;12.092;2023-08-06T11:40:17;95576.84;;;18.47;62.02
16094;BME280;8151;47.824;12.092;2023-08-06T11:42:46;95584.00;;;18.42;62.24
16094;BME280;8151;47.824;12.092;2023-08-06T11:45:21;95592.63;;;18.32;61.99
16094;BME280;8151;47.824;12.092;2023-08-06T11:47:52;95594.72;;;18.18;62.01
16094;BME280;8151;47.824;12.092;2023-08-06T11:50:23;95577.50;;;18.14;62.17
16094;BME280;8151;47.824;12.092;2023-08-06T11:52:57;95583.56;;;18.09;61.84
16094;BME280;8151;47.824;12.092;2023-08-06T11:55:27;95578.94;;;18.05;61.91
16094;BME280;8151;47.824;12.092;2023-08-06T11:57:56;95585.09;;;18.05;62.02
16094;BME280;8151;47.824;12.092;2023-08-06T12:00:26;95600.44;;;17.98;62.05
16094;BME280;8151;47.824;12.092;2023-08-06T12:02:56;95600.69;;;17.97;62.05
16094;BME280;8151;47.824;12.092;2023-08-06T12:05:30;95581.94;;;17.97;62.01
16094;BME280;8151;47.824;12.092;2023-08-06T12:08:01;95587.41;;;18.02;61.92
16094;BME280;8151;47.824;12.092;2023-08-06T12:10:31;95595.28;;;18.20;61.86
16094;BME280;8151;47.824;12.092;2023-08-06T12:13:00;95599.25;;;18.29;61.51
16094;BME280;8151;47.824;12.092;2023-08-06T12:15:31;95592.84;;;18.30;61.45
16094;BME280;8151;47.824;12.092;2023-08-06T12:18:00;95601.09;;;18.41;61.33
16094;BME280;8151;47.824;12.092;2023-08-06T12:20:28;95600.72;;;18.49;60.86
16094;BME280;8151;47.824;12.092;2023-08-06T12:22:57;95597.47;;;18.47;60.95
16094;BME280;8151;47.824;12.092;2023-08-06T12:25:26;95581.44;;;18.35;61.11
16094;BME280;8151;47.824;12.092;2023-08-06T12:27:56;95584.25;;;18.28;61.10
16094;BME280;8151;47.824;12.092;2023-08-06T12:30:25;95569.34;;;18.33;60.99
16094;BME280;8151;47.824;12.092;2023-08-06T12:32:55;95595.72;;;18.53;60.93
16094;BME280;8151;47.824;12.092;2023-08-06T12:35:23;95585.91;;;18.58;60.54
16094;BME280;8151;47.824;12.092;2023-08-06T12:37:54;95596.66;;;18.46;60.83
16094;BME280;8151;47.824;12.092;2023-08-06T12:40:25;95583.16;;;18.41;60.74
16094;BME280;8151;47.824;12.092;2023-08-06T12:43:03;95603.41;;;18.49;60.50
16094;BME280;8151;47.824;12.092;2023-08-06T12:45:32;95586.97;;;18.57;60.39
16094;BME280;8151;47.824;12.092;2023-08-06T12:48:03;95590.41;;;18.69;60.08
16094;BME280;8151;47.824;12.092;2023-08-06T12:50:31;95593.78;;;18.77;60.19
16094;BME280;8151;47.824;12.092;2023-08-06T12:53:01;95605.06;;;18.79;60.10
16094;BME280;8151;47.824;12.092;2023-08-06T12:55:31;95603.59;;;18.71;60.05
16094;BME280;8151;47.824;12.092;2023-08-06T12:58:00;95597.78;;;18.62;60.14
16094;BME280;8151;47.824;12.092;2023-08-06T13:00:28;95590.53;;;18.63;60.14
16094;BME280;8151;47.824;12.092;2023-08-06T13:02:57;95585.88;;;18.70;59.88
16094;BME280;8151;47.824;12.092;2023-08-06T13:05:27;95587.84;;;18.75;59.77
16094;BME280;8151;47.824;12.092;2023-08-06T13:07:55;95604.50;;;18.77;59.61
16094;BME280;8151;47.824;12.092;2023-08-06T13:10:24;95610.75;;;18.94;59.40
16094;BME280;8151;47.824;12.092;2023-08-06T13:12:54;95616.47;;;19.15;58.73